createdAt,value
2023-04-13T00:00:11.500Z,9.29
2023-04-13T00:03:03.305Z,9.38
2023-04-13T00:05:53.723Z,9.41
2023-04-13T00:08:45.521Z,9.46
2023-04-13T00:11:35.453Z,9.49
2023-04-13T00:14:29.731Z,9.52
2023-04-13T00:17:18.352Z,9.57
2023-04-13T00:20:13.240Z,9.61
2023-04-13T00:23:01.836Z,9.67
2023-04-13T00:25:51.533Z,9.71
2023-04-13T00:28:41.667Z,9.68
2023-04-13T00:31:30.958Z,9.69
2023-04-13T00:34:19.995Z,9.76
2023-04-13T00:37:08.599Z,9.79
2023-04-13T00:39:58.071Z,9.80
2023-04-13T00:42:47.521Z,9.78
2023-04-13T00:45:39.649Z,9.78
2023-04-13T00:48:28.468Z,9.77
2023-04-13T00:51:18.382Z,9.71
2023-04-13T00:54:08.064Z,9.58
2023-04-13T00:56:59.266Z,9.53
2023-04-13T00:59:49.464Z,9.44
2023-04-13T01:02:42.930Z,9.29
2023-04-13T01:05:41.127Z,9.09
2023-04-13T01:08:37.176Z,8.99
2023-04-13T01:11:31.599Z,8.93
2023-04-13T01:14:30.847Z,8.90
2023-04-13T01:17:23.942Z,8.59
2023-04-13T01:20:17.820Z,8.66
2023-04-13T01:23:10.124Z,8.54
2023-04-13T01:26:04.548Z,8.50
2023-04-13T01:28:55.158Z,8.42
2023-04-13T01:31:45.542Z,8.49
2023-04-13T01:34:34.704Z,8.46
2023-04-13T01:37:26.104Z,8.46
2023-04-13T01:40:18.645Z,8.43
2023-04-13T01:43:12.216Z,8.41
2023-04-13T01:46:14.000Z,8.47
2023-04-13T01:49:18.576Z,8.52
2023-04-13T01:52:30.360Z,8.57
2023-04-13T01:55:20.906Z,8.62
2023-04-13T01:58:15.790Z,8.62
2023-04-13T02:01:11.297Z,8.71
2023-04-13T02:04:00.613Z,8.72
2023-04-13T02:06:53.609Z,8.75
2023-04-13T02:09:50.894Z,8.75
2023-04-13T02:12:39.877Z,8.73
2023-04-13T02:15:28.586Z,8.75
2023-04-13T02:18:20.314Z,8.74
2023-04-13T02:21:10.042Z,8.73
2023-04-13T02:23:59.176Z,8.75
2023-04-13T02:26:47.852Z,8.76
2023-04-13T02:29:38.072Z,8.73
2023-04-13T02:32:26.848Z,8.70
2023-04-13T02:35:20.637Z,8.72
2023-04-13T02:38:10.709Z,8.72
2023-04-13T02:41:01.126Z,8.74
2023-04-13T02:43:52.506Z,8.70
2023-04-13T02:46:44.856Z,8.55
2023-04-13T02:49:37.527Z,8.45
2023-04-13T02:52:41.085Z,8.26
2023-04-13T02:55:29.819Z,8.24
2023-04-13T02:58:32.934Z,8.24
2023-04-13T03:01:25.805Z,8.30
2023-04-13T03:04:17.413Z,8.35
2023-04-13T03:07:09.944Z,8.33
2023-04-13T03:10:06.567Z,8.33
2023-04-13T03:12:56.085Z,8.34
2023-04-13T03:15:46.570Z,8.31
2023-04-13T03:18:38.485Z,8.36
2023-04-13T03:21:29.371Z,8.33
2023-04-13T03:24:27.870Z,8.33
2023-04-13T03:27:21.435Z,8.34
2023-04-13T03:30:12.334Z,8.31
2023-04-13T03:33:11.357Z,8.28
2023-04-13T03:36:01.561Z,8.33
2023-04-13T03:38:54.607Z,8.32
2023-04-13T03:41:44.619Z,8.28
2023-04-13T03:44:34.727Z,8.25
2023-04-13T03:47:26.820Z,8.32
2023-04-13T03:50:16.455Z,8.29
2023-04-13T03:53:05.185Z,8.29
2023-04-13T03:55:54.517Z,8.33
2023-04-13T03:58:44.592Z,8.33
2023-04-13T04:01:36.420Z,8.35
2023-04-13T04:04:27.628Z,8.37
2023-04-13T04:07:16.345Z,8.30
2023-04-13T04:10:07.078Z,8.36
2023-04-13T04:12:56.870Z,8.40
2023-04-13T04:15:46.743Z,8.43
2023-04-13T04:18:38.418Z,8.42
2023-04-13T04:21:34.165Z,8.39
2023-04-13T04:24:27.655Z,8.40
2023-04-13T04:27:20.454Z,8.38
2023-04-13T04:30:11.663Z,8.38
2023-04-13T04:33:02.966Z,8.33
2023-04-13T04:35:58.862Z,8.38
2023-04-13T04:38:58.258Z,8.35
2023-04-13T04:41:49.239Z,8.35
2023-04-13T04:44:39.998Z,8.38
2023-04-13T04:47:32.278Z,8.38
2023-04-13T04:50:33.294Z,8.39
2023-04-13T04:53:32.184Z,8.33
2023-04-13T04:56:22.519Z,8.33
2023-04-13T04:59:14.425Z,8.39
2023-04-13T05:02:16.793Z,8.33
2023-04-13T05:05:07.008Z,8.29
2023-04-13T05:07:55.751Z,8.29
2023-04-13T05:10:47.062Z,8.30
2023-04-13T05:13:35.655Z,8.34
2023-04-13T05:16:34.764Z,8.31
2023-04-13T05:19:35.483Z,8.25
2023-04-13T05:22:47.865Z,8.16
2023-04-13T05:25:36.974Z,8.16
2023-04-13T05:28:34.054Z,8.15
2023-04-13T05:31:24.225Z,8.14
2023-04-13T05:34:13.584Z,8.08
2023-04-13T05:37:10.479Z,7.99
2023-04-13T05:39:59.556Z,7.98
2023-04-13T05:42:57.791Z,8.10
2023-04-13T05:45:52.185Z,8.13
2023-04-13T05:48:43.161Z,8.08
2023-04-13T05:51:34.466Z,8.05
2023-04-13T05:54:23.694Z,7.97
2023-04-13T05:57:12.510Z,7.94
2023-04-13T06:00:10.239Z,8.05
2023-04-13T06:03:04.790Z,8.09
2023-04-13T06:05:54.225Z,8.09
2023-04-13T06:08:44.456Z,8.14
2023-04-13T06:11:33.010Z,8.09
2023-04-13T06:14:22.213Z,8.06
2023-04-13T06:17:10.926Z,8.10
2023-04-13T06:20:01.016Z,8.15
2023-04-13T06:22:50.908Z,8.06
2023-04-13T06:25:42.720Z,8.11
2023-04-13T06:28:33.717Z,8.04
2023-04-13T06:31:23.372Z,8.17
2023-04-13T06:34:14.137Z,8.14
2023-04-13T06:37:05.498Z,8.01
2023-04-13T06:40:12.463Z,7.99
2023-04-13T06:43:18.975Z,7.99
2023-04-13T06:46:31.362Z,8.00
2023-04-13T06:49:28.007Z,8.05
2023-04-13T06:52:20.227Z,8.08
2023-04-13T06:55:10.221Z,8.12
2023-04-13T06:58:01.868Z,8.17
2023-04-13T07:00:50.647Z,8.11
2023-04-13T07:03:40.551Z,8.10
2023-04-13T07:06:29.749Z,8.04
2023-04-13T07:09:20.959Z,8.10
2023-04-13T07:12:09.899Z,8.18
2023-04-13T07:14:59.045Z,8.21
2023-04-13T07:17:47.748Z,8.25
2023-04-13T07:20:38.715Z,8.34
2023-04-13T07:23:28.037Z,8.53
2023-04-13T07:26:18.529Z,8.66
2023-04-13T07:29:13.197Z,8.75
2023-04-13T07:32:06.502Z,8.93
2023-04-13T07:35:00.007Z,9.08
2023-04-13T07:37:51.382Z,9.08
2023-04-13T07:40:42.857Z,9.21
2023-04-13T07:43:35.350Z,9.25
2023-04-13T07:46:28.676Z,9.31
2023-04-13T07:49:17.763Z,9.47
2023-04-13T07:52:07.321Z,9.44
2023-04-13T07:54:58.725Z,9.42
2023-04-13T07:57:48.837Z,9.53
2023-04-13T08:00:39.728Z,9.54
2023-04-13T08:03:32.005Z,9.65
2023-04-13T08:06:22.538Z,9.58
2023-04-13T08:09:12.884Z,9.70
2023-04-13T08:12:03.229Z,9.78
2023-04-13T08:14:52.191Z,9.99
2023-04-13T08:17:44.411Z,10.12
2023-04-13T08:20:35.532Z,10.15
2023-04-13T08:23:25.869Z,10.26
2023-04-13T08:26:18.608Z,10.37
2023-04-13T08:29:08.976Z,10.54
2023-04-13T08:31:58.246Z,10.49
2023-04-13T08:34:50.014Z,10.27
2023-04-13T08:37:39.885Z,10.27
2023-04-13T08:40:30.854Z,10.30
2023-04-13T08:43:21.458Z,10.31
2023-04-13T08:46:10.468Z,10.64
2023-04-13T08:49:00.497Z,10.77
2023-04-13T08:52:04.817Z,10.93
2023-04-13T08:54:55.825Z,11.28
2023-04-13T08:57:51.209Z,11.50
2023-04-13T09:00:41.677Z,11.53
2023-04-13T09:03:38.322Z,11.55
2023-04-13T09:06:33.211Z,11.40
2023-04-13T09:09:27.557Z,11.56
2023-04-13T09:12:16.714Z,11.69
2023-04-13T09:15:07.191Z,11.39
2023-04-13T09:18:10.419Z,11.29
2023-04-13T09:21:04.310Z,11.50
2023-04-13T09:23:56.642Z,11.71
2023-04-13T09:26:48.498Z,11.64
2023-04-13T09:29:37.216Z,11.62
2023-04-13T09:32:27.714Z,11.92
2023-04-13T09:35:19.272Z,11.92
2023-04-13T09:38:08.904Z,11.99
2023-04-13T09:40:59.158Z,12.46
2023-04-13T09:43:49.084Z,12.55
2023-04-13T09:46:38.414Z,12.90
2023-04-13T09:49:27.556Z,12.70
2023-04-13T09:52:23.873Z,12.55
2023-04-13T09:55:17.736Z,12.66
2023-04-13T09:58:13.937Z,12.61
2023-04-13T10:01:04.106Z,12.51
2023-04-13T10:03:53.315Z,12.52
2023-04-13T10:06:44.894Z,12.76
2023-04-13T10:09:33.517Z,12.94
2023-04-13T10:12:23.293Z,13.18
2023-04-13T10:15:23.357Z,13.55
2023-04-13T10:18:28.185Z,13.74
2023-04-13T10:21:17.453Z,13.65
2023-04-13T10:24:12.088Z,13.89
2023-04-13T10:27:12.574Z,13.90
2023-04-13T10:30:04.083Z,13.99
2023-04-13T10:33:05.100Z,14.27
2023-04-13T10:35:59.345Z,14.61
2023-04-13T10:38:48.583Z,14.72
2023-04-13T10:41:37.942Z,14.66
2023-04-13T10:44:27.193Z,14.39
2023-04-13T10:47:18.681Z,14.27
2023-04-13T10:50:17.632Z,13.97
2023-04-13T10:53:09.272Z,13.59
2023-04-13T10:55:58.708Z,13.74
2023-04-13T10:58:54.105Z,13.76
2023-04-13T11:01:44.001Z,13.91
2023-04-13T11:04:32.795Z,13.64
2023-04-13T11:07:24.105Z,13.40
2023-04-13T11:10:14.256Z,13.71
2023-04-13T11:13:03.057Z,13.89
2023-04-13T11:15:54.124Z,13.87
2023-04-13T11:18:42.817Z,13.92
2023-04-13T11:21:32.559Z,13.76
2023-04-13T11:24:25.830Z,13.56
2023-04-13T11:27:20.678Z,13.63
2023-04-13T11:30:11.104Z,13.61
2023-04-13T11:33:01.751Z,13.58
2023-04-13T11:35:51.624Z,13.67
2023-04-13T11:38:42.174Z,13.77
2023-04-13T11:41:33.172Z,13.83
2023-04-13T11:44:23.871Z,14.17
2023-04-13T11:47:16.144Z,14.46
2023-04-13T11:50:06.624Z,14.51
2023-04-13T11:52:57.640Z,14.65
2023-04-13T11:55:53.201Z,14.75
2023-04-13T11:58:43.804Z,14.66
2023-04-13T12:01:36.707Z,14.68
2023-04-13T12:04:29.231Z,14.69
2023-04-13T12:07:18.826Z,14.80
2023-04-13T12:10:11.036Z,14.74
2023-04-13T12:13:17.174Z,14.71
2023-04-13T12:16:14.661Z,14.77
2023-04-13T12:19:10.190Z,14.61
2023-04-13T12:22:00.600Z,14.30
2023-04-13T12:24:50.978Z,14.12
2023-04-13T12:27:41.351Z,13.92
2023-04-13T12:30:29.958Z,13.80
2023-04-13T12:33:20.150Z,13.61
2023-04-13T12:36:11.690Z,13.66
2023-04-13T12:39:01.022Z,13.61
2023-04-13T12:41:49.841Z,13.47
2023-04-13T12:44:40.398Z,13.38
2023-04-13T12:47:29.025Z,13.31
2023-04-13T12:50:19.353Z,13.23
2023-04-13T12:53:09.847Z,13.09
2023-04-13T12:55:58.468Z,13.00
2023-04-13T12:58:48.957Z,12.97
2023-04-13T13:01:38.206Z,12.95
2023-04-13T13:04:30.166Z,12.88
2023-04-13T13:07:19.631Z,12.82
2023-04-13T13:10:25.775Z,12.76
2023-04-13T13:13:19.227Z,12.76
2023-04-13T13:16:09.134Z,12.78
2023-04-13T13:18:57.724Z,12.78
2023-04-13T13:21:46.405Z,12.73
2023-04-13T13:24:35.771Z,12.67
2023-04-13T13:30:18.213Z,12.46
2023-04-13T13:33:07.214Z,12.37
2023-04-13T13:35:56.235Z,12.53
2023-04-13T13:38:44.891Z,12.33
2023-04-13T13:41:34.502Z,12.25
2023-04-13T13:44:25.023Z,12.47
2023-04-13T13:47:15.636Z,12.36
2023-04-13T13:50:11.136Z,12.25
2023-04-13T13:53:04.957Z,12.20
2023-04-13T13:56:01.870Z,12.12
2023-04-13T13:58:51.462Z,12.09
2023-04-13T14:01:42.002Z,12.03
2023-04-13T14:04:31.714Z,12.09
2023-04-13T14:07:20.507Z,11.93
2023-04-13T14:10:11.719Z,11.82
2023-04-13T14:13:00.466Z,11.90
2023-04-13T14:15:49.297Z,11.84
2023-04-13T14:18:39.418Z,11.84
2023-04-13T14:21:28.392Z,11.75
2023-04-13T14:24:17.622Z,11.73
2023-04-13T14:27:07.266Z,11.66
2023-04-13T14:29:55.934Z,11.65
2023-04-13T14:32:47.247Z,11.54
2023-04-13T14:35:38.747Z,11.59
2023-04-13T14:38:27.864Z,11.68
2023-04-13T14:41:17.182Z,11.66
2023-04-13T14:44:06.021Z,11.81
2023-04-13T14:46:55.342Z,11.98
2023-04-13T14:49:44.412Z,11.99
2023-04-13T14:52:35.056Z,12.03
2023-04-13T14:55:24.612Z,12.09
2023-04-13T14:58:13.490Z,12.17
2023-04-13T15:01:02.352Z,12.24
2023-04-13T15:03:53.337Z,12.25
2023-04-13T15:06:42.252Z,12.20
2023-04-13T15:09:33.161Z,12.23
2023-04-13T15:12:22.754Z,12.27
2023-04-13T15:15:13.238Z,12.24
2023-04-13T15:18:03.731Z,12.32
2023-04-13T15:20:52.868Z,12.33
2023-04-13T15:23:42.072Z,12.39
2023-04-13T15:26:38.666Z,12.39
2023-04-13T15:29:27.458Z,12.37
2023-04-13T15:32:16.903Z,12.21
2023-04-13T15:35:06.487Z,12.19
2023-04-13T15:37:55.818Z,12.08
2023-04-13T15:40:44.534Z,11.98
2023-04-13T15:43:35.560Z,11.97
2023-04-13T15:46:24.794Z,11.94
2023-04-13T15:49:13.537Z,11.98
2023-04-13T15:52:02.311Z,11.99
2023-04-13T15:54:51.059Z,11.80
2023-04-13T15:57:40.193Z,11.84
2023-04-13T16:00:31.682Z,11.82
2023-04-13T16:03:22.547Z,11.80
2023-04-13T16:06:11.716Z,11.64
2023-04-13T16:09:01.217Z,11.55
2023-04-13T16:11:50.940Z,11.37
2023-04-13T16:14:41.981Z,11.28
2023-04-13T16:17:32.449Z,11.22
2023-04-13T16:20:23.311Z,11.22
2023-04-13T16:23:14.334Z,11.17
2023-04-13T16:26:03.878Z,11.11
2023-04-13T16:28:53.544Z,11.08
2023-04-13T16:31:44.841Z,11.08
2023-04-13T16:34:35.108Z,11.02
2023-04-13T16:37:24.657Z,10.98
2023-04-13T16:40:15.413Z,10.78
2023-04-13T16:43:05.874Z,10.93
2023-04-13T16:45:54.585Z,10.90
2023-04-13T16:48:44.257Z,10.89
2023-04-13T16:51:34.344Z,10.90
2023-04-13T16:54:23.884Z,10.83
2023-04-13T16:57:12.989Z,10.78
2023-04-13T17:00:07.180Z,10.78
2023-04-13T17:02:56.185Z,10.76
2023-04-13T17:05:45.435Z,10.76
2023-04-13T17:08:35.655Z,10.75
2023-04-13T17:11:24.536Z,10.71
2023-04-13T17:14:13.239Z,10.72
2023-04-13T17:17:02.736Z,10.66
2023-04-13T17:19:53.253Z,10.65
2023-04-13T17:22:42.889Z,10.67
2023-04-13T17:25:34.834Z,10.67
2023-04-13T17:28:24.782Z,10.63
2023-04-13T17:31:13.935Z,10.62
2023-04-13T17:34:02.663Z,10.58
2023-04-13T17:36:51.745Z,10.45
2023-04-13T17:39:42.699Z,10.48
2023-04-13T17:42:32.892Z,10.42
2023-04-13T17:45:22.111Z,10.60
2023-04-13T17:48:13.865Z,10.61
2023-04-13T17:51:03.491Z,10.45
2023-04-13T17:53:53.732Z,10.52
2023-04-13T17:56:43.860Z,10.58
2023-04-13T17:59:34.056Z,10.63
2023-04-13T18:02:23.830Z,10.63
2023-04-13T18:05:15.500Z,10.65
2023-04-13T18:08:05.251Z,10.64
2023-04-13T18:10:56.586Z,10.65
2023-04-13T18:13:45.833Z,10.66
2023-04-13T18:16:36.722Z,10.64
2023-04-13T18:19:28.981Z,10.62
2023-04-13T18:22:17.835Z,10.59
2023-04-13T18:25:07.777Z,10.61
2023-04-13T18:27:56.713Z,10.64
2023-04-13T18:30:46.373Z,10.49
2023-04-13T18:33:37.766Z,10.53
2023-04-13T18:36:36.932Z,10.53
2023-04-13T18:39:28.695Z,10.53
2023-04-13T18:42:18.509Z,10.44
2023-04-13T18:45:08.550Z,10.40
2023-04-13T18:47:58.576Z,10.39
2023-04-13T18:55:29.378Z,10.31
2023-04-13T18:58:19.587Z,10.27
2023-04-13T19:01:15.930Z,10.11
2023-04-13T19:04:05.663Z,10.21
2023-04-13T19:06:54.526Z,10.20
2023-04-13T19:09:43.498Z,10.10
2023-04-13T19:12:33.552Z,10.19
2023-04-13T19:15:23.999Z,10.16
2023-04-13T19:18:12.609Z,9.94
2023-04-13T19:21:01.441Z,10.10
2023-04-13T19:23:50.434Z,10.08
2023-04-13T19:26:40.138Z,10.06
2023-04-13T19:29:31.651Z,10.11
2023-04-13T19:32:20.341Z,10.13
2023-04-13T19:35:10.493Z,10.13
2023-04-13T19:38:00.557Z,10.13
2023-04-13T19:40:49.063Z,10.08
2023-04-13T19:43:38.522Z,9.99
2023-04-13T19:46:28.992Z,10.02
2023-04-13T19:49:18.461Z,9.99
2023-04-13T19:52:06.994Z,9.91
2023-04-13T19:54:56.233Z,9.91
2023-04-13T19:57:44.767Z,9.88
2023-04-13T20:00:34.491Z,9.88
2023-04-13T20:03:26.101Z,9.89
2023-04-13T20:06:16.922Z,9.90
2023-04-13T20:09:10.280Z,9.87
2023-04-13T20:12:00.449Z,9.88
2023-04-13T20:14:49.413Z,9.87
2023-04-13T20:17:38.783Z,9.86
2023-04-13T20:20:29.494Z,9.86
2023-04-13T20:23:18.104Z,9.82
2023-04-13T20:26:06.664Z,9.76
2023-04-13T20:28:55.334Z,9.64
2023-04-13T20:31:44.344Z,9.69
2023-04-13T20:34:34.889Z,9.70
2023-04-13T20:37:25.394Z,9.68
2023-04-13T20:40:14.117Z,9.62
2023-04-13T20:46:11.439Z,9.58
2023-04-13T20:49:02.764Z,9.51
2023-04-13T20:51:53.655Z,9.47
2023-04-13T20:54:43.949Z,9.40
2023-04-13T20:57:33.173Z,9.37
2023-04-13T21:00:25.307Z,9.37
2023-04-13T21:03:15.526Z,9.36
2023-04-13T21:06:04.216Z,9.35
2023-04-13T21:08:54.771Z,9.31
2023-04-13T21:11:47.741Z,9.32
2023-04-13T21:14:36.247Z,9.27
2023-04-13T21:17:25.815Z,9.26
2023-04-13T21:20:14.363Z,9.23
2023-04-13T21:23:03.350Z,9.16
2023-04-13T21:25:51.887Z,9.18
2023-04-13T21:28:42.730Z,9.08
2023-04-13T21:31:31.341Z,9.11
2023-04-13T21:34:22.784Z,9.09
2023-04-13T21:37:11.757Z,9.03
2023-04-13T21:40:00.523Z,9.01
2023-04-13T21:42:49.518Z,9.00
2023-04-13T21:45:39.901Z,9.00
2023-04-13T21:48:28.529Z,8.97
2023-04-13T21:51:17.104Z,8.99
2023-04-13T21:54:07.136Z,8.99
2023-04-13T21:56:56.084Z,8.95
2023-04-13T21:59:44.703Z,8.95
2023-04-13T22:02:34.868Z,8.93
2023-04-13T22:05:23.688Z,8.93
2023-04-13T22:08:13.520Z,8.92
2023-04-13T22:11:02.676Z,8.88
2023-04-13T22:13:52.717Z,8.84
2023-04-13T22:16:41.400Z,8.78
2023-04-13T22:19:31.988Z,8.77
2023-04-13T22:22:21.092Z,8.70
2023-04-13T22:25:10.122Z,8.69
2023-04-13T22:27:59.187Z,8.68
2023-04-13T22:30:47.878Z,8.66
2023-04-13T22:33:38.468Z,8.57
2023-04-13T22:36:28.458Z,8.57
2023-04-13T22:39:17.987Z,8.57
2023-04-13T22:42:06.812Z,8.57
2023-04-13T22:44:55.914Z,8.56
2023-04-13T22:47:44.556Z,8.55
2023-04-13T22:50:34.069Z,8.57
2023-04-13T22:53:24.037Z,8.59
2023-04-13T22:56:12.963Z,8.56
2023-04-13T22:59:01.909Z,8.57
2023-04-13T23:01:51.866Z,8.59
2023-04-13T23:04:40.968Z,8.58
2023-04-13T23:07:30.617Z,8.55
2023-04-13T23:10:21.093Z,8.56
2023-04-13T23:13:09.706Z,8.56
2023-04-13T23:16:00.978Z,8.54
2023-04-13T23:18:49.658Z,8.52
2023-04-13T23:21:39.166Z,8.51
2023-04-13T23:24:29.573Z,8.48
2023-04-13T23:27:20.882Z,8.42
2023-04-13T23:30:10.973Z,8.35
2023-04-13T23:33:00.498Z,8.33
2023-04-13T23:35:52.697Z,8.32
2023-04-13T23:38:41.680Z,8.19
2023-04-13T23:41:30.747Z,8.22
2023-04-13T23:44:21.910Z,8.29
2023-04-13T23:47:11.102Z,8.25
2023-04-13T23:50:00.627Z,8.27
2023-04-13T23:52:49.242Z,8.26
2023-04-13T23:55:39.322Z,8.27
2023-04-13T23:58:28.381Z,8.24
